Time;durP1;ratioP1;P1;durP2;ratioP2;P2;SDS_P1;SDS_P2;PMS_P1;PMS_P2;Temp;Humidity;BMP_temperature;BMP_pressure;BME280_temperature;BME280_humidity;BME280_pressure;Samples;Min_cycle;Max_cycle;Signal;HPM_P1;HPM_P2
2024/02/17 00:01:16;;;;;;;12.70;6.70;;;;;;;5.90;66.55;99576.00;105558;1255;97936;-79
2024/02/17 00:03:44;;;;;;;12.20;6.40;;;;;;;5.90;66.63;99575.45;105611;1251;107197;-78
2024/02/17 00:06:13;;;;;;;9.00;5.90;;;;;;;5.86;66.50;99571.04;105884;1257;96595;-78
2024/02/17 00:08:41;;;;;;;9.20;5.20;;;;;;;5.86;66.40;99568.95;105827;1256;96481;-78
2024/02/17 00:11:09;;;;;;;11.30;6.60;;;;;;;5.85;66.46;99568.80;105979;1254;109553;-78
2024/02/17 00:13:36;;;;;;;14.00;6.90;;;;;;;5.86;66.52;99566.84;105689;1257;97518;-77
2024/02/17 00:16:07;;;;;;;10.90;6.10;;;;;;;5.87;66.44;99568.56;105635;1254;107621;-78
2024/02/17 00:18:35;;;;;;;9.70;6.20;;;;;;;5.86;66.40;99570.00;105676;1251;97143;-77
2024/02/17 00:21:03;;;;;;;11.90;6.60;;;;;;;5.87;66.34;99571.20;105722;1254;96606;-77
2024/02/17 00:23:32;;;;;;;12.30;7.10;;;;;;;5.87;66.47;99568.35;105773;1256;109928;-79
2024/02/17 00:26:00;;;;;;;9.70;5.60;;;;;;;5.89;66.48;99572.70;105633;1254;96584;-77
2024/02/17 00:28:28;;;;;;;11.30;6.40;;;;;;;5.88;66.46;99571.48;105741;1263;107425;-78
2024/02/17 00:30:56;;;;;;;13.00;7.20;;;;;;;5.88;66.54;99571.50;105416;1257;96565;-77
2024/02/17 00:33:24;;;;;;;9.90;5.90;;;;;;;5.89;66.50;99567.41;105583;1255;96578;-76
2024/02/17 00:35:52;;;;;;;12.40;6.40;;;;;;;5.88;66.34;99567.79;105428;1257;108659;-77
2024/02/17 00:38:20;;;;;;;10.40;6.80;;;;;;;5.87;66.41;99567.31;105553;1255;96612;-76
2024/02/17 00:40:48;;;;;;;10.10;6.00;;;;;;;5.90;66.26;99566.31;105607;1255;107573;-78
2024/02/17 00:43:16;;;;;;;11.70;6.60;;;;;;;5.90;66.38;99562.79;105651;1263;96589;-76
2024/02/17 00:45:48;;;;;;;9.40;6.70;;;;;;;5.92;66.31;99564.64;105640;1254;96583;-79
2024/02/17 00:48:16;;;;;;;;;;;;;;;5.95;66.49;99560.23;105747;1254;109362;-78
2024/02/17 00:50:45;;;;;;;9.20;5.60;;;;;;;5.95;66.39;99561.47;105760;1260;96635;-78
2024/02/17 00:53:21;;;;;;;12.40;6.50;;;;;;;5.96;66.44;99559.50;105643;1260;105876;-77
2024/02/17 00:55:49;;;;;;;9.10;5.30;;;;;;;5.97;66.25;99559.80;105603;1254;96603;-79
2024/02/17 00:58:17;;;;;;;11.80;6.40;;;;;;;5.97;66.34;99559.27;105789;1256;96572;-76
2024/02/17 01:00:45;;;;;;;10.80;6.80;;;;;;;5.99;66.37;99560.98;105504;1257;110512;-79
2024/02/17 01:03:13;;;;;;;11.50;5.90;;;;;;;5.98;66.42;99557.67;106093;1254;96599;-77
2024/02/17 01:05:42;;;;;;;10.30;6.30;;;;;;;5.95;66.11;99555.48;105496;1257;107259;-81
2024/02/17 01:08:10;;;;;;;12.80;7.20;;;;;;;5.92;66.33;99557.52;105794;1256;96735;-80
2024/02/17 01:10:39;;;;;;;13.40;7.50;;;;;;;5.94;66.39;99557.11;105815;1256;96529;-78
2024/02/17 01:13:09;;;;;;;13.00;6.70;;;;;;;5.96;66.27;99560.73;105839;1255;109416;-78
2024/02/17 01:15:37;;;;;;;13.30;7.00;;;;;;;5.95;66.25;99559.54;105820;1257;96583;-78
2024/02/17 01:18:05;;;;;;;12.70;6.60;;;;;;;5.95;66.29;99563.95;105617;1257;106265;-78
2024/02/17 01:20:34;;;;;;;10.40;7.30;;;;;;;5.93;66.23;99557.85;105790;1251;96578;-77
2024/02/17 01:23:01;;;;;;;11.60;6.90;;;;;;;5.95;66.20;99555.84;105981;1255;96570;-78
2024/02/17 01:25:29;;;;;;;14.50;6.70;;;;;;;5.96;66.31;99551.58;105887;1251;109984;-76
2024/02/17 01:27:57;;;;;;;14.60;7.30;;;;;;;5.99;66.12;99553.06;105657;1257;96940;-78
2024/02/17 01:30:25;;;;;;;12.90;6.70;;;;;;;6.00;66.01;99550.73;105705;1257;107171;-77
2024/02/17 01:32:53;;;;;;;11.50;7.30;;;;;;;6.02;66.37;99552.23;105650;1258;96596;-78
2024/02/17 01:35:21;;;;;;;13.80;7.70;;;;;;;6.03;66.14;99552.52;105944;1263;96730;-78
2024/02/17 01:37:49;;;;;;;12.60;7.00;;;;;;;6.03;66.11;99550.79;105868;1263;109396;-78
2024/02/17 01:40:20;;;;;;;13.90;7.80;;;;;;;6.04;66.14;99550.02;105843;1251;96863;-78
2024/02/17 01:42:48;;;;;;;11.20;6.90;;;;;;;6.06;66.02;99550.98;105642;1266;107556;-78
2024/02/17 01:45:16;;;;;;;12.10;7.70;;;;;;;6.05;66.15;99553.48;105637;1256;97176;-77
2024/02/17 01:47:44;;;;;;;10.40;6.40;;;;;;;6.05;66.09;99553.50;105806;1256;97330;-77
2024/02/17 01:50:13;;;;;;;12.70;6.90;;;;;;;6.07;66.24;99558.33;107754;1256;109999;-78
2024/02/17 01:52:41;;;;;;;10.00;6.50;;;;;;;6.09;66.01;99557.72;105625;1265;96647;-78
2024/02/17 01:55:10;;;;;;;10.20;6.50;;;;;;;6.07;65.98;99560.45;105561;1257;107153;-77
2024/02/17 01:57:38;;;;;;;8.90;6.50;;;;;;;6.08;66.13;99562.52;105530;1254;96731;-77
2024/02/17 02:00:08;;;;;;;10.10;6.10;;;;;;;6.08;66.14;99563.92;105431;1253;96577;-78
2024/02/17 02:02:38;;;;;;;11.90;7.00;;;;;;;6.09;66.12;99566.16;105666;1256;108135;-77
2024/02/17 02:05:06;;;;;;;9.50;5.90;;;;;;;6.08;66.18;99564.95;105574;1251;96800;-77
2024/02/17 02:07:34;;;;;;;12.80;7.70;;;;;;;6.07;66.11;99566.60;105644;1256;107174;-77
2024/02/17 02:10:03;;;;;;;10.40;6.30;;;;;;;6.06;65.96;99562.61;105788;1257;97883;-78
2024/02/17 02:12:31;;;;;;;18.90;7.70;;;;;;;6.04;65.92;99567.80;105607;1257;96551;-78
2024/02/17 02:15:10;;;;;;;10.00;6.50;;;;;;;6.02;65.89;99568.61;105374;1263;109892;-77
2024/02/17 02:17:40;;;;;;;11.90;6.80;;;;;;;6.01;65.98;99566.36;105648;1255;96581;-77
2024/02/17 02:20:14;;;;;;;12.30;7.60;;;;;;;5.99;65.92;99563.96;105450;1256;107282;-78
2024/02/17 02:22:44;;;;;;;12.10;6.80;;;;;;;5.99;65.91;99564.48;105605;1256;97569;-76
2024/02/17 02:25:32;;;;;;;11.00;5.90;;;;;;;5.99;65.90;99563.07;105521;1257;96628;-77
2024/02/17 02:27:59;;;;;;;12.70;6.30;;;;;;;5.98;65.74;99565.92;105613;1252;109932;-77
2024/02/17 02:30:27;;;;;;;10.20;6.70;;;;;;;5.99;65.96;99565.88;105606;1265;96585;-78
2024/02/17 02:33:00;;;;;;;15.20;7.10;;;;;;;6.00;65.71;99561.81;105342;1263;106223;-78
2024/02/17 02:35:28;;;;;;;;;;;;;;;6.00;65.87;99561.82;105515;1256;96644;-77
2024/02/17 02:37:55;;;;;;;10.70;6.70;;;;;;;5.99;65.83;99559.58;105640;1254;96556;-78
2024/02/17 02:40:23;;;;;;;13.50;7.10;;;;;;;5.97;65.72;99561.22;105880;1256;110646;-78
2024/02/17 02:42:51;;;;;;;11.60;6.10;;;;;;;5.95;65.73;99563.05;105835;1254;96796;-78
2024/02/17 02:45:19;;;;;;;12.20;6.50;;;;;;;5.95;65.78;99560.95;105566;1263;107710;-77
2024/02/17 02:47:47;;;;;;;15.20;7.30;;;;;;;5.94;65.65;99561.51;105561;1265;96599;-77
2024/02/17 02:50:16;;;;;;;12.80;7.30;;;;;;;5.93;65.68;99564.41;105352;1265;96548;-77
2024/02/17 02:52:43;;;;;;;11.90;6.20;;;;;;;5.91;65.78;99562.16;105525;1251;110024;-78
2024/02/17 02:55:11;;;;;;;12.50;7.40;;;;;;;5.92;65.56;99564.44;105718;1254;96584;-76
2024/02/17 02:57:39;;;;;;;12.50;7.40;;;;;;;5.90;65.80;99567.20;105650;1263;107053;-78
2024/02/17 03:00:08;;;;;;;11.00;6.60;;;;;;;5.89;65.68;99566.34;105451;1265;97409;-78
2024/02/17 03:02:35;;;;;;;11.30;6.20;;;;;;;5.86;65.62;99567.73;105882;1254;97790;-78
2024/02/17 03:05:03;;;;;;;11.70;6.40;;;;;;;5.81;65.64;99564.38;105558;1255;109909;-77
2024/02/17 03:07:31;;;;;;;10.80;6.20;;;;;;;5.79;65.71;99566.25;105493;1257;96587;-79
2024/02/17 03:09:59;;;;;;;13.80;7.10;;;;;;;5.77;65.77;99568.09;105690;1275;107699;-78
2024/02/17 03:12:27;;;;;;;10.50;6.50;;;;;;;5.77;65.49;99571.76;105627;1256;97451;-78
2024/02/17 03:14:55;;;;;;;8.60;5.20;;;;;;;5.78;65.64;99570.18;105435;1251;96673;-79
2024/02/17 03:17:23;;;;;;;12.50;7.50;;;;;;;5.77;65.48;99568.98;105524;1254;108588;-77
2024/02/17 03:19:51;;;;;;;14.60;7.20;;;;;;;5.76;65.37;99570.08;105301;1257;96584;-78
2024/02/17 03:22:20;;;;;;;13.40;6.90;;;;;;;5.76;65.62;99567.80;105519;1255;107559;-78
2024/02/17 03:24:48;;;;;;;15.50;7.30;;;;;;;5.75;65.49;99567.15;105719;1266;96651;-78
2024/02/17 03:27:16;;;;;;;10.80;6.80;;;;;;;5.74;65.39;99567.17;105689;1251;98036;-78
2024/02/17 03:29:44;;;;;;;12.20;7.10;;;;;;;5.75;65.64;99570.68;105766;1257;108540;-77
2024/02/17 03:32:12;;;;;;;12.80;6.70;;;;;;;5.73;65.64;99571.63;105538;1256;96570;-77
2024/02/17 03:34:40;;;;;;;10.30;6.10;;;;;;;5.72;65.50;99569.05;105482;1265;107148;-78
2024/02/17 03:37:08;;;;;;;14.20;7.20;;;;;;;5.71;65.57;99568.93;105425;1273;96701;-78
2024/02/17 03:39:36;;;;;;;10.20;6.70;;;;;;;5.71;65.58;99570.48;105505;1256;97921;-78
2024/02/17 03:42:05;;;;;;;11.40;6.90;;;;;;;5.70;65.53;99571.04;105580;1255;108840;-78
2024/02/17 03:44:34;;;;;;;10.30;6.30;;;;;;;5.69;65.41;99574.63;105879;1251;96644;-78
2024/02/17 03:47:01;;;;;;;9.80;6.30;;;;;;;5.70;65.49;99570.55;105469;1265;107356;-78
2024/02/17 03:49:29;;;;;;;10.90;7.10;;;;;;;5.70;65.32;99572.66;105597;1257;96618;-77
2024/02/17 03:51:57;;;;;;;13.90;7.20;;;;;;;5.68;65.29;99573.95;105749;1251;97786;-78
2024/02/17 03:54:26;;;;;;;13.80;6.70;;;;;;;5.68;65.39;99575.74;105810;1251;109328;-79
2024/02/17 03:56:54;;;;;;;13.70;7.00;;;;;;;5.68;65.37;99578.55;105845;1254;96566;-78
2024/02/17 03:59:21;;;;;;;12.30;6.30;;;;;;;5.68;65.13;99580.85;105834;1254;108207;-78
2024/02/17 04:01:55;;;;;;;10.80;6.40;;;;;;;5.68;65.18;99582.75;105884;1258;96603;-76
2024/02/17 04:04:23;;;;;;;10.00;6.00;;;;;;;5.69;65.39;99585.02;105665;1251;96621;-77
2024/02/17 04:06:51;;;;;;;12.60;6.70;;;;;;;5.68;65.26;99582.94;105812;1254;109876;-78
2024/02/17 04:09:19;;;;;;;10.20;6.20;;;;;;;5.67;65.41;99582.98;105747;1254;96494;-78
2024/02/17 04:11:47;;;;;;;13.60;7.00;;;;;;;5.66;65.21;99584.94;105884;1254;107471;-79
2024/02/17 04:14:15;;;;;;;10.20;6.30;;;;;;;5.65;65.29;99586.03;105481;1257;96676;-78
2024/02/17 04:16:43;;;;;;;10.10;6.30;;;;;;;5.65;65.28;99586.05;105915;1254;96580;-77
2024/02/17 04:19:10;;;;;;;11.80;6.60;;;;;;;5.63;65.21;99583.48;105415;1267;109887;-77
2024/02/17 04:21:39;;;;;;;11.60;6.30;;;;;;;5.61;65.10;99583.22;105796;1256;96584;-78
2024/02/17 04:24:07;;;;;;;12.00;6.60;;;;;;;5.59;65.01;99584.19;105890;1254;108790;-77
2024/02/17 04:26:34;;;;;;;11.70;7.10;;;;;;;5.58;65.25;99582.12;105569;1251;96698;-79
2024/02/17 04:29:02;;;;;;;11.40;6.30;;;;;;;5.58;65.22;99583.20;105813;1254;97257;-78
2024/02/17 04:31:30;;;;;;;10.60;6.40;;;;;;;5.58;65.30;99580.89;105677;1265;110039;-80
2024/02/17 04:33:58;;;;;;;12.40;6.50;;;;;;;5.57;65.24;99579.71;105575;1265;97518;-78
2024/02/17 04:36:27;;;;;;;10.50;6.60;;;;;;;5.56;65.20;99580.83;105627;1255;107628;-78
2024/02/17 04:38:55;;;;;;;9.80;6.20;;;;;;;5.54;64.99;99580.16;105800;1254;96603;-78
2024/02/17 04:41:23;;;;;;;10.70;5.90;;;;;;;5.53;65.30;99584.98;105770;1256;96507;-77
2024/02/17 04:43:50;;;;;;;9.70;6.00;;;;;;;5.52;65.16;99589.08;105885;1251;109857;-78
2024/02/17 04:46:18;;;;;;;9.50;6.30;;;;;;;5.50;65.11;99584.03;105674;1253;96662;-78
2024/02/17 04:48:46;;;;;;;10.50;6.70;;;;;;;5.51;65.29;99588.41;105681;1258;108717;-77
2024/02/17 04:51:14;;;;;;;13.00;7.20;;;;;;;5.50;65.11;99586.88;105560;1254;97179;-78
2024/02/17 04:53:42;;;;;;;12.80;6.90;;;;;;;5.49;64.86;99592.17;105849;1254;97999;-78
2024/02/17 04:56:09;;;;;;;10.60;6.90;;;;;;;5.49;65.16;99593.42;105702;1251;109919;-77
2024/02/17 04:58:37;;;;;;;11.30;6.40;;;;;;;5.48;65.11;99595.22;105620;1254;96583;-78
2024/02/17 05:01:08;;;;;;;12.20;7.00;;;;;;;5.48;65.20;99594.69;105451;1255;108416;-78
2024/02/17 05:03:37;;;;;;;9.30;5.80;;;;;;;5.48;65.20;99593.83;105922;1254;96593;-78
2024/02/17 05:06:05;;;;;;;12.40;6.60;;;;;;;5.47;65.12;99594.90;105773;1251;96605;-78
2024/02/17 05:08:33;;;;;;;12.00;7.10;;;;;;;5.47;65.16;99595.10;105762;1251;109567;-78
2024/02/17 05:11:01;;;;;;;14.30;6.50;;;;;;;5.47;65.04;99591.23;105768;1254;98003;-80
2024/02/17 05:13:29;;;;;;;10.80;6.10;;;;;;;5.48;64.98;99591.17;105575;1254;108102;-78
2024/02/17 05:15:56;;;;;;;11.60;6.10;;;;;;;5.50;65.19;99592.31;105710;1254;96677;-78
2024/02/17 05:18:24;;;;;;;10.40;5.50;;;;;;;5.50;65.03;99595.65;105680;1254;96481;-77
2024/02/17 05:20:52;;;;;;;12.70;7.30;;;;;;;5.50;64.91;99597.43;105697;1255;111000;-75
2024/02/17 05:23:20;;;;;;;11.70;7.00;;;;;;;5.49;64.84;99599.03;105813;1251;96648;-78
2024/02/17 05:25:48;;;;;;;14.20;6.70;;;;;;;5.49;64.93;99602.39;105771;1256;107097;-78
2024/02/17 05:28:16;;;;;;;10.60;6.70;;;;;;;5.48;64.90;99601.02;105726;1256;96656;-77
2024/02/17 05:30:44;;;;;;;11.90;7.10;;;;;;;5.47;64.83;99599.13;105725;1252;97412;-78
2024/02/17 05:33:12;;;;;;;11.40;6.30;;;;;;;5.48;65.07;99604.23;105589;1254;109309;-78
2024/02/17 05:35:41;;;;;;;11.40;6.30;;;;;;;5.49;64.78;99606.81;105848;1255;96811;-78
2024/02/17 05:38:08;;;;;;;12.40;6.90;;;;;;;5.50;64.78;99609.05;105734;1251;107598;-77
2024/02/17 05:40:36;;;;;;;13.60;6.90;;;;;;;5.49;64.87;99608.72;105895;1254;97410;-77
2024/02/17 05:43:05;;;;;;;12.90;6.90;;;;;;;5.50;65.02;99612.56;105904;1251;96577;-78
2024/02/17 05:45:32;;;;;;;13.40;6.80;;;;;;;5.49;64.75;99611.70;105848;1251;109627;-78
2024/02/17 05:48:00;;;;;;;11.10;6.10;;;;;;;5.49;64.72;99612.42;105618;1251;96619;-78
2024/02/17 05:50:30;;;;;;;11.30;7.00;;;;;;;5.50;64.84;99614.13;105912;1254;107417;-78
2024/02/17 05:52:58;;;;;;;13.30;6.50;;;;;;;5.49;64.84;99616.83;105898;1250;97151;-78
2024/02/17 05:55:26;;;;;;;10.90;7.20;;;;;;;5.48;64.86;99619.33;105538;1251;96596;-78
2024/02/17 05:57:54;;;;;;;11.40;6.90;;;;;;;5.49;64.58;99625.29;105845;1251;110852;-76
2024/02/17 06:00:22;;;;;;;13.30;6.80;;;;;;;5.48;64.78;99627.58;105741;1258;96579;-77
2024/02/17 06:02:50;;;;;;;12.50;6.60;;;;;;;5.50;64.79;99629.43;105848;1251;108029;-77
2024/02/17 06:05:18;;;;;;;11.40;6.60;;;;;;;5.53;64.84;99630.39;105823;1256;96618;-78
2024/02/17 06:07:45;;;;;;;13.20;7.10;;;;;;;5.55;64.83;99634.85;107099;1256;97518;-78
2024/02/17 06:10:13;;;;;;;11.20;6.40;;;;;;;5.58;64.89;99629.83;105712;1256;109901;-79
2024/02/17 06:12:42;;;;;;;13.70;7.50;;;;;;;5.59;64.61;99632.23;105697;1261;96608;-77
2024/02/17 06:15:10;;;;;;;12.40;6.80;;;;;;;5.61;64.73;99637.63;105580;1251;107419;-78
2024/02/17 06:17:42;;;;;;;12.60;6.50;;;;;;;5.63;64.73;99641.89;105485;1251;96597;-79
2024/02/17 06:22:57;;;;;;;13.80;7.50;;;;;;;5.68;64.67;99642.75;105494;1251;108772;-78
2024/02/17 06:25:25;;;;;;;11.80;6.30;;;;;;;5.70;64.56;99649.20;105901;1251;96600;-77
2024/02/17 06:27:53;;;;;;;11.00;6.40;;;;;;;5.73;64.40;99648.69;105431;1273;107637;-78
2024/02/17 06:30:22;;;;;;;10.80;6.70;;;;;;;5.77;64.48;99652.20;105491;1254;96660;-78
2024/02/17 06:32:50;;;;;;;12.10;6.30;;;;;;;5.81;64.39;99653.61;105587;1254;96525;-78
2024/02/17 06:35:18;;;;;;;11.50;6.70;;;;;;;5.85;64.70;99655.94;105859;1254;109873;-77
2024/02/17 06:37:46;;;;;;;12.60;6.10;;;;;;;5.89;64.47;99657.89;105811;1251;96644;-77
2024/02/17 06:40:14;;;;;;;13.00;6.60;;;;;;;5.95;64.42;99656.52;105921;1266;107333;-79
2024/02/17 06:42:43;;;;;;;11.60;6.80;;;;;;;6.01;64.51;99660.01;105903;1257;96606;-77
2024/02/17 06:45:16;;;;;;;10.80;6.50;;;;;;;6.06;64.57;99661.35;105746;1254;96656;-81
2024/02/17 06:47:46;;;;;;;11.30;6.30;;;;;;;6.16;64.70;99665.14;105659;1254;108852;-79
2024/02/17 06:50:14;;;;;;;11.00;6.70;;;;;;;6.25;64.45;99664.95;105770;1251;96592;-79
2024/02/17 06:52:52;;;;;;;14.10;6.60;;;;;;;6.32;64.53;99670.59;105721;1254;109388;-79
2024/02/17 06:55:20;;;;;;;9.90;6.40;;;;;;;6.40;64.57;99670.61;105906;1251;96664;-78
2024/02/17 06:57:47;;;;;;;10.60;6.40;;;;;;;6.47;64.48;99669.95;105872;1255;96565;-79
2024/02/17 07:00:18;;;;;;;12.20;6.00;;;;;;;6.53;64.34;99676.36;105779;1251;108843;-70
2024/02/17 07:02:46;;;;;;;9.60;6.30;;;;;;;6.61;64.40;99681.48;105846;1251;96492;-71
2024/02/17 07:05:14;;;;;;;11.90;6.80;;;;;;;6.69;64.50;99679.17;105752;1254;107500;-72
2024/02/17 07:07:43;;;;;;;14.90;6.90;;;;;;;6.74;64.30;99679.25;105545;1254;96648;-71
2024/02/17 07:10:10;;;;;;;15.80;7.70;;;;;;;6.78;64.52;99680.30;105908;1254;97842;-72
2024/02/17 07:12:38;;;;;;;12.40;6.20;;;;;;;6.81;64.31;99680.13;105714;1251;109890;-72
2024/02/17 07:15:07;;;;;;;14.30;7.10;;;;;;;6.85;64.26;99680.32;105400;1257;96605;-70
2024/02/17 07:17:35;;;;;;;13.10;6.70;;;;;;;6.88;64.28;99682.87;105463;1254;108974;-72
2024/02/17 07:20:04;;;;;;;12.40;7.40;;;;;;;6.90;64.27;99678.36;105601;1254;97173;-71
2024/02/17 07:22:32;;;;;;;11.90;6.60;;;;;;;6.92;64.20;99679.84;105695;1264;96625;-71
2024/02/17 07:25:00;;;;;;;12.30;6.70;;;;;;;6.95;64.37;99680.91;105734;1254;109631;-71
2024/02/17 07:27:28;;;;;;;10.20;6.30;;;;;;;6.98;64.28;99683.96;105710;1251;96588;-71
2024/02/17 07:29:56;;;;;;;11.80;5.60;;;;;;;7.01;64.17;99682.05;105699;1251;108721;-72
2024/02/17 07:32:25;;;;;;;12.40;6.00;;;;;;;7.05;64.15;99678.70;105582;1255;96623;-71
2024/02/17 07:34:53;;;;;;;11.20;6.40;;;;;;;7.07;64.09;99678.57;105745;1255;97520;-72
2024/02/17 07:37:21;;;;;;;11.70;6.90;;;;;;;7.09;64.12;99676.89;105759;1254;110101;-70
2024/02/17 07:39:49;;;;;;;12.10;6.90;;;;;;;7.11;64.05;99680.68;105862;1254;96680;-71
2024/02/17 07:42:17;;;;;;;11.90;7.30;;;;;;;7.13;64.03;99681.64;105661;1254;106647;-72
2024/02/17 07:44:46;;;;;;;11.20;6.70;;;;;;;7.16;64.01;99679.91;105498;1257;96560;-74
2024/02/17 07:47:14;;;;;;;13.50;7.10;;;;;;;7.20;63.97;99679.54;105947;1251;96552;-73
2024/02/17 07:49:43;;;;;;;12.00;7.00;;;;;;;7.24;64.01;99678.11;105901;1251;109921;-72
2024/02/17 07:52:11;;;;;;;12.60;6.90;;;;;;;7.30;63.93;99681.73;105734;1258;97632;-73
2024/02/17 07:54:39;;;;;;;12.90;7.10;;;;;;;7.35;63.96;99681.45;105674;1266;107587;-74
2024/02/17 07:57:08;;;;;;;11.10;6.60;;;;;;;7.40;63.98;99682.10;105770;1254;96514;-74
2024/02/17 07:59:38;;;;;;;18.00;9.40;;;;;;;7.47;63.93;99682.83;105920;1250;96517;-74
2024/02/17 08:02:05;;;;;;;17.20;7.70;;;;;;;7.52;63.98;99680.09;105851;1250;109797;-72
2024/02/17 08:04:34;;;;;;;14.90;8.00;;;;;;;7.57;63.91;99682.13;105659;1254;97863;-72
2024/02/17 08:07:02;;;;;;;15.50;8.70;;;;;;;7.63;63.84;99681.69;105670;1257;107089;-72
2024/02/17 08:09:31;;;;;;;13.30;7.20;;;;;;;7.68;63.76;99685.30;105780;1254;96599;-72
2024/02/17 08:11:59;;;;;;;16.30;7.40;;;;;;;7.70;63.71;99682.91;105758;1251;96558;-73
2024/02/17 08:14:26;;;;;;;13.60;8.20;;;;;;;7.73;63.74;99682.72;105411;1254;111306;-74
2024/02/17 08:16:57;;;;;;;12.70;8.00;;;;;;;7.78;63.78;99688.51;105452;1254;97095;-73
2024/02/17 08:19:25;;;;;;;12.70;7.30;;;;;;;7.82;63.76;99684.92;105392;1264;107084;-72
2024/02/17 08:21:53;;;;;;;14.00;7.70;;;;;;;7.84;63.71;99685.17;106001;1251;97514;-72
2024/02/17 08:24:21;;;;;;;16.40;8.10;;;;;;;7.88;63.73;99687.27;106431;1251;96500;-72
2024/02/17 08:26:49;;;;;;;14.20;8.50;;;;;;;7.93;63.66;99688.29;105642;1255;108306;-73
2024/02/17 08:29:20;;;;;;;17.20;9.20;;;;;;;7.97;63.61;99691.42;105756;1254;96585;-71
2024/02/17 08:31:49;;;;;;;21.80;10.10;;;;;;;8.01;63.68;99689.79;105719;1255;107719;-73
2024/02/17 08:34:19;;;;;;;13.50;8.00;;;;;;;8.07;63.56;99690.54;105767;1254;96702;-74
2024/02/17 08:36:47;;;;;;;13.40;6.80;;;;;;;8.16;63.69;99694.49;105582;1254;96658;-71
2024/02/17 08:39:15;;;;;;;15.00;8.50;;;;;;;8.26;63.60;99693.26;105784;1254;110009;-72
2024/02/17 08:41:44;;;;;;;16.40;8.40;;;;;;;8.35;63.75;99698.63;105365;1257;96634;-72
2024/02/17 08:44:12;;;;;;;18.90;8.00;;;;;;;8.44;63.79;99697.06;105617;1262;107604;-73
2024/02/17 08:46:41;;;;;;;16.40;8.60;;;;;;;8.57;63.74;99695.70;105590;1254;98034;-74
2024/02/17 08:49:12;;;;;;;16.40;8.30;;;;;;;8.68;63.64;99698.12;105568;1250;96593;-73
2024/02/17 08:51:40;;;;;;;12.70;7.30;;;;;;;8.77;63.52;99702.22;105483;1254;109909;-75
2024/02/17 08:54:49;;;;;;;12.80;8.60;;;;;;;8.85;63.56;99700.23;105626;1251;96721;-77
2024/02/17 08:57:19;;;;;;;14.00;8.30;;;;;;;8.92;63.52;99701.59;105488;1265;107183;-72
2024/02/17 08:59:47;;;;;;;12.10;7.80;;;;;;;9.00;63.60;99701.52;105637;1251;96624;-73
2024/02/17 09:02:18;;;;;;;12.50;7.80;;;;;;;9.04;63.48;99706.95;105988;1251;96522;-72
2024/02/17 09:04:46;;;;;;;15.30;7.50;;;;;;;9.06;63.12;99708.77;105424;1254;110017;-73
2024/02/17 09:07:15;;;;;;;14.80;7.80;;;;;;;9.06;63.27;99711.06;105816;1251;96593;-74
2024/02/17 09:09:43;;;;;;;12.20;7.40;;;;;;;9.07;63.20;99714.71;105602;1254;107603;-73
2024/02/17 09:12:11;;;;;;;15.00;9.00;;;;;;;9.08;63.27;99715.73;105465;1251;97762;-72
2024/02/17 09:14:39;;;;;;;13.20;8.00;;;;;;;9.12;63.15;99718.17;105914;1250;97949;-75
2024/02/17 09:17:07;;;;;;;13.20;7.60;;;;;;;9.15;63.20;99727.36;105869;1254;110338;-73
2024/02/17 09:19:34;;;;;;;17.20;7.90;;;;;;;9.19;63.16;99727.30;105845;1254;96582;-73
2024/02/17 09:22:04;;;;;;;12.40;7.80;;;;;;;9.22;63.18;99727.84;105918;1254;109135;-73
2024/02/17 09:24:31;;;;;;;13.10;7.80;;;;;;;9.25;63.09;99735.66;105974;1252;96503;-73
2024/02/17 09:27:04;;;;;;;12.70;7.60;;;;;;;9.30;63.18;99734.15;105649;1254;96578;-72
2024/02/17 09:29:32;;;;;;;13.20;6.80;;;;;;;9.36;62.99;99737.15;105884;1254;109857;-73
2024/02/17 09:32:00;;;;;;;13.00;7.10;;;;;;;9.41;63.14;99740.42;105813;1254;96587;-73
2024/02/17 09:34:31;;;;;;;11.40;7.40;;;;;;;9.46;63.10;99739.44;105607;1266;107669;-74
2024/02/17 09:37:00;;;;;;;15.40;8.60;;;;;;;9.49;63.05;99746.88;105796;1253;96670;-72
2024/02/17 09:39:28;;;;;;;12.30;7.20;;;;;;;9.51;62.96;99742.88;105956;1254;96837;-73
2024/02/17 09:41:56;;;;;;;11.60;7.20;;;;;;;9.52;62.91;99751.48;105514;1255;109795;-73
2024/02/17 09:44:24;;;;;;;14.30;8.00;;;;;;;9.56;63.02;99758.21;105831;1251;97361;-73
2024/02/17 09:46:53;;;;;;;12.60;7.30;;;;;;;9.58;62.86;99753.65;105894;1254;107590;-72
2024/02/17 09:49:26;;;;;;;15.70;7.60;;;;;;;9.60;62.96;99753.88;105843;1254;96531;-75
2024/02/17 09:51:55;;;;;;;12.10;7.50;;;;;;;9.63;62.82;99757.78;105790;1254;97259;-75
2024/02/17 09:54:24;;;;;;;13.80;7.60;;;;;;;9.65;63.05;99754.65;105777;1250;109427;-74
2024/02/17 09:56:53;;;;;;;14.30;7.80;;;;;;;9.68;62.91;99760.84;105452;1251;97265;-73
2024/02/17 09:59:21;;;;;;;12.20;7.50;;;;;;;9.72;63.03;99763.86;105596;1258;107119;-76
2024/02/17 10:01:48;;;;;;;14.90;8.50;;;;;;;9.73;63.03;99770.48;105534;1251;97569;-73
2024/02/17 10:04:17;;;;;;;14.40;8.40;;;;;;;9.73;62.89;99774.77;105671;1251;97393;-74
2024/02/17 10:06:59;;;;;;;14.70;9.00;;;;;;;9.68;62.77;99780.00;105866;1251;108555;-70
2024/02/17 10:09:28;;;;;;;13.50;7.60;;;;;;;9.58;62.63;99784.61;105665;1257;97643;-73
2024/02/17 10:11:58;;;;;;;12.40;7.20;;;;;;;9.45;62.74;99784.80;105732;1251;107614;-73
2024/02/17 10:14:29;;;;;;;13.90;8.10;;;;;;;9.34;62.83;99785.06;105737;1254;97256;-73
2024/02/17 10:16:58;;;;;;;16.50;10.20;;;;;;;9.22;62.73;99782.54;105791;1251;96705;-72
2024/02/17 10:19:29;;;;;;;20.70;11.20;;;;;;;9.11;62.92;99784.40;105596;1257;111345;-74
2024/02/17 10:21:57;;;;;;;21.10;11.30;;;;;;;9.00;62.75;99778.29;105617;1258;96670;-73
2024/02/17 10:24:25;;;;;;;25.40;13.30;;;;;;;8.88;62.87;99771.81;105665;1254;107590;-79
2024/02/17 10:26:54;;;;;;;25.60;13.40;;;;;;;8.80;62.93;99774.77;105541;1257;97403;-77
2024/02/17 10:29:23;;;;;;;22.60;12.00;;;;;;;8.72;62.96;99774.46;105575;1253;96590;-78
2024/02/17 10:31:52;;;;;;;20.90;11.80;;;;;;;8.66;63.07;99774.61;105667;1254;109471;-71
2024/02/17 10:34:20;;;;;;;22.20;12.70;;;;;;;8.61;63.09;99775.90;105814;1251;96657;-75
2024/02/17 10:36:48;;;;;;;21.10;12.10;;;;;;;8.59;63.15;99772.66;105817;1270;107652;-73
2024/02/17 10:39:20;;;;;;;21.20;13.70;;;;;;;8.59;63.35;99772.69;105428;1254;96583;-79
2024/02/17 10:41:48;;;;;;;17.30;10.30;;;;;;;8.59;63.26;99772.13;105670;1252;96506;-67
2024/02/17 10:44:16;;;;;;;17.90;10.00;;;;;;;8.60;63.32;99773.33;105609;1254;109968;-68
2024/02/17 10:46:47;;;;;;;17.00;9.80;;;;;;;8.61;63.44;99772.39;105507;1251;96600;-70
2024/02/17 10:49:31;;;;;;;16.50;9.90;;;;;;;8.63;63.46;99776.73;105798;1252;107174;-71
2024/02/17 10:52:03;;;;;;;22.40;12.20;;;;;;;8.64;63.49;99774.88;108807;1251;94330;-68
2024/02/17 10:54:50;;;;;;;27.80;14.80;;;;;;;8.64;63.43;99775.40;108822;1251;94617;-68
2024/02/17 10:57:22;;;;;;;28.40;13.80;;;;;;;8.65;63.52;99781.41;106281;1254;108880;-70
2024/02/17 10:59:54;;;;;;;21.30;12.70;;;;;;;8.63;63.48;99780.75;105636;1254;96609;-68
2024/02/17 11:03:58;;;;;;;22.30;12.90;;;;;;;8.66;63.50;99776.53;102675;1291;648873;-68
2024/02/17 11:06:25;;;;;;;20.70;11.80;;;;;;;8.63;63.48;99775.45;105024;1266;94293;-69
2024/02/17 11:08:52;;;;;;;23.10;13.10;;;;;;;8.62;63.63;99778.70;105085;1268;94307;-69
2024/02/17 11:11:23;;;;;;;23.10;13.80;;;;;;;8.62;63.68;99779.39;106803;1268;94223;-69
2024/02/17 11:13:51;;;;;;;19.10;10.70;;;;;;;8.64;63.72;99776.85;105032;1269;95539;-72
2024/02/17 11:16:21;;;;;;;25.10;12.90;;;;;;;8.63;63.68;99777.05;104078;1264;1774630;-69
2024/02/17 11:18:54;;;;;;;28.90;14.00;;;;;;;8.62;63.73;99780.09;104869;1266;94883;-69
2024/02/17 11:21:29;;;;;;;30.60;13.90;;;;;;;8.62;63.76;99777.98;104893;1266;95256;-70
2024/02/17 11:23:59;;;;;;;21.40;11.80;;;;;;;8.62;63.81;99783.27;104750;1261;106627;-70
2024/02/17 11:26:25;;;;;;;24.50;12.00;;;;;;;8.62;63.80;99782.61;105200;1263;95429;-70
2024/02/17 11:29:06;;;;;;;20.60;11.40;;;;;;;8.62;63.94;99786.65;105309;1262;107040;-70
2024/02/17 11:31:33;;;;;;;20.90;11.30;;;;;;;8.63;63.85;99788.73;105252;1273;96199;-69
2024/02/17 11:34:02;;;;;;;21.80;11.70;;;;;;;8.64;64.02;99795.40;105150;1263;95545;-69